Time;durP1;ratioP1;P1;durP2;ratioP2;P2;SDS_P1;SDS_P2;PMS_P1;PMS_P2;Temp;Humidity;BMP_temperature;BMP_pressure;BME280_temperature;BME280_humidity;BME280_pressure;Samples;Min_cycle;Max_cycle;Signal;HPM_P1;HPM_P2
2022/01/22 00:01:54;;;;;;;37.30;17.35;;;;;;;-6.81;63.82;100294.63;5080604;28;20138;-80
2022/01/22 00:04:20;;;;;;;32.10;15.35;;;;;;;-6.67;63.52;100298.19;5082473;28;20135;-79
2022/01/22 00:06:46;;;;;;;35.42;15.98;;;;;;;-6.73;63.77;100308.56;5084315;28;20161;-79
2022/01/22 00:09:12;;;;;;;35.58;15.52;;;;;;;-6.61;63.70;100302.56;5080292;28;20495;-81
2022/01/22 00:11:49;;;;;;;33.58;14.75;;;;;;;-6.52;63.50;100296.53;5074195;28;20549;-81
2022/01/22 00:14:24;;;;;;;34.60;17.08;;;;;;;-6.46;63.44;100302.63;5075639;28;20475;-80
2022/01/22 00:16:58;;;;;;;32.90;14.75;;;;;;;-6.50;63.40;100310.44;5092740;28;20052;-79
2022/01/22 00:19:24;;;;;;;34.95;17.27;;;;;;;-6.49;63.33;100310.41;5044034;28;20449;-81
2022/01/22 00:21:51;;;;;;;40.55;19.52;;;;;;;-6.41;63.12;100310.44;5096822;28;20135;-80
2022/01/22 00:24:17;;;;;;;41.92;17.88;;;;;;;-6.44;63.01;100305.22;5058728;28;20496;-80
2022/01/22 00:26:43;;;;;;;36.20;17.40;;;;;;;-6.58;63.12;100301.69;5057216;28;20041;-80
2022/01/22 00:29:10;;;;;;;38.75;19.13;;;;;;;-6.61;63.36;100315.56;5090649;28;20052;-79
2022/01/22 00:31:38;;;;;;;36.97;18.73;;;;;;;-6.62;63.29;100311.22;5090297;28;20068;-79
2022/01/22 00:34:03;;;;;;;36.05;18.30;;;;;;;-6.60;63.46;100322.50;5057155;28;20040;-79
2022/01/22 00:36:30;;;;;;;36.35;16.83;;;;;;;-6.54;63.37;100309.53;5057084;28;20045;-79
2022/01/22 00:38:55;;;;;;;39.03;17.83;;;;;;;-6.50;63.27;100316.50;5107519;28;20499;-78
2022/01/22 00:41:21;;;;;;;37.30;18.05;;;;;;;-6.48;63.29;100313.88;5094952;28;20067;-78
2022/01/22 00:43:49;;;;;;;37.53;16.45;;;;;;;-6.52;63.24;100312.13;5078457;28;20048;-81
2022/01/22 00:46:15;;;;;;;39.83;16.48;;;;;;;-6.51;63.41;100308.66;5061181;28;20103;-79
2022/01/22 00:48:41;;;;;;;35.20;15.52;;;;;;;-6.48;63.31;100298.28;5056923;28;20544;-80
2022/01/22 00:51:07;;;;;;;32.22;14.25;;;;;;;-6.44;63.50;100300.03;5073272;28;20506;-80
2022/01/22 00:53:33;;;;;;;30.45;15.20;;;;;;;-6.43;63.25;100301.75;5074658;28;20086;-80
2022/01/22 00:55:59;;;;;;;34.35;13.77;;;;;;;-6.47;63.25;100305.22;5074403;28;20480;-80
2022/01/22 00:58:24;;;;;;;31.70;12.70;;;;;;;-6.47;63.19;100307.81;5073140;28;20049;-81
2022/01/22 01:00:50;;;;;;;31.80;13.45;;;;;;;-6.58;63.15;100313.00;5073105;28;20045;-79
2022/01/22 01:03:16;;;;;;;29.83;13.30;;;;;;;-6.60;63.00;100318.16;5073453;28;20129;-80
2022/01/22 01:05:43;;;;;;;25.70;12.48;;;;;;;-6.62;63.27;100317.31;5090048;28;20091;-79
2022/01/22 01:08:09;;;;;;;24.25;12.48;;;;;;;-6.67;63.35;100308.59;5056710;28;20098;-80
2022/01/22 01:10:35;;;;;;;23.83;11.68;;;;;;;-6.72;63.05;100315.50;5072766;28;20095;-80
2022/01/22 01:13:01;;;;;;;26.33;12.57;;;;;;;-6.80;63.12;100312.00;5074405;28;20464;-79
2022/01/22 01:34:12;;;;;;;24.13;12.27;;;;;;;-7.27;63.95;100307.34;5044206;28;20132;-79
2022/01/22 01:36:39;;;;;;;28.88;12.93;;;;;;;-7.29;64.02;100311.69;5072746;28;20435;-79
2022/01/22 01:39:08;;;;;;;29.15;11.50;;;;;;;-7.39;64.23;100305.53;5089149;28;20068;-79
2022/01/22 01:44:09;;;;;;;24.08;11.73;;;;;;;-7.38;64.51;100309.00;5041671;28;20119;-80
2022/01/22 01:46:45;;;;;;;31.65;12.25;;;;;;;-7.45;64.69;100310.66;5073005;28;20048;-80
2022/01/22 01:49:12;;;;;;;26.70;11.48;;;;;;;-7.45;64.52;100315.00;5055893;28;20094;-79
2022/01/22 01:51:38;;;;;;;20.25;11.55;;;;;;;-7.46;64.68;100311.53;5055673;28;20107;-80
2022/01/22 01:54:28;;;;;;;23.00;11.73;;;;;;;-7.46;65.18;100319.31;5055368;28;20044;-78
2022/01/22 01:59:37;;;;;;;28.25;10.95;;;;;;;-7.50;64.90;100311.50;5058454;28;20048;-78
2022/01/22 02:02:03;;;;;;;26.08;10.35;;;;;;;-7.63;64.76;100316.59;5071621;28;20442;-80
2022/01/22 02:04:30;;;;;;;25.38;10.70;;;;;;;-7.69;65.00;100310.47;5039171;28;20522;-79
2022/01/22 02:06:56;;;;;;;25.95;11.48;;;;;;;-7.67;65.01;100319.13;5072048;28;20131;-79
2022/01/22 02:09:24;;;;;;;22.55;10.95;;;;;;;-7.73;65.29;100319.94;5071893;28;20044;-80
2022/01/22 02:11:58;;;;;;;29.05;10.50;;;;;;;-7.74;65.17;100313.03;5071959;28;20531;-79
2022/01/22 02:25:55;;;;;;;19.02;10.07;;;;;;;-8.11;66.28;100312.66;5071757;28;20094;-79
2022/01/22 02:28:21;;;;;;;30.90;10.32;;;;;;;-8.17;66.72;100312.56;5071667;28;20040;-79
2022/01/22 02:30:52;;;;;;;23.45;9.88;;;;;;;-8.16;66.33;100309.16;5088232;28;20435;-80
2022/01/22 02:33:41;;;;;;;21.52;9.88;;;;;;;-8.17;66.55;100306.50;5071466;28;20500;-80
2022/01/22 02:36:20;;;;;;;17.60;9.02;;;;;;;-8.18;66.50;100313.44;5024755;28;20098;-81
2022/01/22 02:39:00;;;;;;;18.05;8.93;;;;;;;-8.18;66.83;100318.63;5071997;28;20495;-80
2022/01/22 02:41:27;;;;;;;23.45;8.48;;;;;;;-8.29;66.70;100315.03;5107827;28;20040;-80
2022/01/22 02:43:55;;;;;;;17.35;8.55;;;;;;;-8.22;67.16;100318.56;5058770;28;20068;-79
2022/01/22 02:46:25;;;;;;;16.98;8.38;;;;;;;-8.34;67.17;100314.97;5092550;28;20045;-79
2022/01/22 02:48:54;;;;;;;16.02;7.60;;;;;;;-8.32;66.93;100333.13;5042645;28;20056;-79
2022/01/22 02:51:21;;;;;;;16.63;8.15;;;;;;;-8.28;67.26;100327.13;5075984;28;20050;-79
2022/01/22 02:53:49;;;;;;;18.67;8.13;;;;;;;-8.26;66.92;100342.75;5042179;28;20047;-80
2022/01/22 02:56:16;;;;;;;20.98;8.65;;;;;;;-8.28;66.81;100340.09;5075800;28;20052;-80
2022/01/22 02:58:42;;;;;;;15.73;8.35;;;;;;;-8.33;67.02;100334.00;5042684;28;20048;-81
2022/01/22 03:01:15;;;;;;;18.77;7.80;;;;;;;-8.22;67.09;100360.06;5092292;28;20048;-81
2022/01/22 03:03:41;;;;;;;21.92;9.80;;;;;;;-8.18;67.13;100352.34;5059366;28;20048;-81
2022/01/22 03:06:07;;;;;;;21.95;9.80;;;;;;;-8.18;67.09;100351.47;5075302;28;20071;-81
2022/01/22 03:08:33;;;;;;;17.63;8.57;;;;;;;-8.15;67.13;100347.19;5058680;28;20051;-82
2022/01/22 03:11:04;;;;;;;21.77;9.27;;;;;;;-8.16;67.39;100350.66;5075081;28;20041;-80
2022/01/22 03:16:25;;;;;;;19.92;8.93;;;;;;;-8.04;67.42;100351.66;5058276;28;20036;-79
2022/01/22 03:29:30;;;;;;;27.20;10.32;;;;;;;-7.99;66.72;100360.34;5044207;28;20040;-81
2022/01/22 03:31:56;;;;;;;25.35;10.73;;;;;;;-7.97;67.01;100361.22;5093715;28;20052;-80
2022/01/22 03:34:22;;;;;;;24.17;10.73;;;;;;;-7.97;66.76;100361.22;5074840;28;20109;-78
2022/01/22 03:36:48;;;;;;;21.77;10.10;;;;;;;-8.00;66.83;100366.38;5041657;28;20052;-81
2022/01/22 03:39:14;;;;;;;27.30;10.70;;;;;;;-8.06;66.80;100362.84;5090974;28;20048;-78
2022/01/22 03:41:41;;;;;;;30.50;9.45;;;;;;;-8.05;66.95;100374.09;5091638;28;20491;-82
2022/01/22 03:44:08;;;;;;;27.52;11.15;;;;;;;-8.00;67.08;100376.75;5041153;28;20040;-81
2022/01/22 03:46:41;;;;;;;19.52;10.43;;;;;;;-8.01;67.22;100369.81;5041983;28;20098;-80
2022/01/22 03:49:10;;;;;;;27.75;11.50;;;;;;;-8.06;67.24;100365.44;5108604;28;20060;-81
2022/01/22 03:51:36;;;;;;;23.10;10.75;;;;;;;-7.96;67.11;100373.34;5057575;28;20040;-81
2022/01/22 03:54:03;;;;;;;23.25;11.35;;;;;;;-7.97;66.79;100371.59;5057726;28;20143;-80
2022/01/22 03:56:29;;;;;;;26.83;11.15;;;;;;;-7.89;66.78;100383.81;5058208;28;20444;-80
2022/01/22 03:59:22;;;;;;;33.55;9.77;;;;;;;-7.95;66.66;100368.16;5082549;28;20071;-81
2022/01/22 04:04:45;;;;;;;25.00;11.38;;;;;;;-8.02;66.80;100381.06;5060218;28;20440;-79
2022/01/22 04:07:40;;;;;;;25.80;10.95;;;;;;;-8.00;67.00;100377.63;5057841;28;20127;-80
2022/01/22 04:10:01;;;;;;;24.02;9.20;;;;;;;-7.94;67.48;100397.56;5057255;28;20040;-77
2022/01/22 04:12:45;;;;;;;27.77;10.45;;;;;;;-7.94;67.04;100387.19;5057986;28;20869;-79
2022/01/22 04:15:13;;;;;;;24.92;10.23;;;;;;;-7.90;67.24;100395.06;5059815;28;20511;-81
2022/01/22 04:26:05;;;;;;;22.02;9.30;;;;;;;-7.89;66.99;100391.59;5060865;28;20123;-82
2022/01/22 04:28:31;;;;;;;21.20;8.60;;;;;;;-7.86;68.77;100389.03;5077167;28;20029;-80
2022/01/22 04:30:57;;;;;;;29.35;11.15;;;;;;;-7.67;69.46;100392.72;5087511;28;20056;-92
2022/01/22 04:33:23;;;;;;;30.33;10.88;;;;;;;-7.55;68.78;100396.28;5057936;28;20083;-77
2022/01/22 04:35:49;;;;;;;30.00;10.40;;;;;;;-7.52;67.44;100389.41;5073712;28;20076;-79
2022/01/22 04:38:15;;;;;;;20.90;9.93;;;;;;;-7.45;66.96;100395.50;5090159;28;20064;-79
2022/01/22 04:40:41;;;;;;;21.42;9.73;;;;;;;-7.41;67.06;100399.84;5074212;28;20052;-81
2022/01/22 04:43:10;;;;;;;38.08;9.98;;;;;;;-7.34;66.95;100401.66;5090982;28;20040;-80
2022/01/22 04:56:15;;;;;;;32.50;10.23;;;;;;;-7.28;65.84;100406.91;5091396;28;20044;-78
2022/01/22 04:58:41;;;;;;;17.73;8.40;;;;;;;-7.18;66.08;100402.69;5059825;28;20075;-76
2022/01/22 05:01:08;;;;;;;22.30;9.80;;;;;;;-7.14;65.42;100405.31;5110897;27;20083;-83
2022/01/22 05:03:53;;;;;;;28.13;10.07;;;;;;;-7.05;65.60;100395.84;5078285;28;20069;-80
2022/01/22 05:06:42;;;;;;;17.92;8.57;;;;;;;-7.05;65.40;100378.53;5059850;28;20478;-82
2022/01/22 05:09:27;;;;;;;17.65;8.70;;;;;;;-7.00;64.92;100386.34;5058622;28;20109;-81
2022/01/22 05:11:57;;;;;;;28.83;8.38;;;;;;;-7.04;64.61;100385.47;5055810;28;20117;-77
2022/01/22 05:14:26;;;;;;;17.45;8.48;;;;;;;-7.07;64.64;100376.78;5072555;28;20522;-78
2022/01/22 05:16:55;;;;;;;19.85;8.45;;;;;;;-6.94;64.77;100382.09;5057537;28;20055;-80
2022/01/22 05:19:33;;;;;;;19.98;8.15;;;;;;;-6.87;64.58;100372.59;5091745;28;20043;-79
2022/01/22 05:22:09;;;;;;;15.80;8.32;;;;;;;-6.78;64.25;100377.84;5075940;28;20039;-82
2022/01/22 05:24:40;;;;;;;19.05;8.65;;;;;;;-6.74;63.92;100387.41;5062141;28;20036;-81
2022/01/22 05:30:03;;;;;;;21.00;8.23;;;;;;;-6.70;63.75;100380.50;5076209;28;20051;-79
2022/01/22 05:38:18;;;;;;;17.08;7.85;;;;;;;-6.64;63.20;100381.41;5075888;28;20477;-78
2022/01/22 05:40:47;;;;;;;16.10;8.20;;;;;;;-6.62;62.75;100374.50;5091613;28;20043;-82
2022/01/22 05:43:20;;;;;;;20.30;8.70;;;;;;;-6.57;62.99;100394.47;5041340;28;20131;-79
2022/01/22 05:45:49;;;;;;;24.05;8.43;;;;;;;-6.55;63.08;100384.94;5041581;28;20044;-78
2022/01/22 05:48:17;;;;;;;16.27;7.67;;;;;;;-6.41;62.80;100384.16;5074147;28;20572;-82
2022/01/22 05:50:54;;;;;;;21.05;8.93;;;;;;;-6.34;62.48;100379.00;5039713;28;20083;-79
2022/01/22 06:01:29;;;;;;;19.42;7.53;;;;;;;-5.98;62.00;100399.09;5068786;28;20127;-80
2022/01/22 06:04:05;;;;;;;15.25;7.00;;;;;;;-5.82;61.94;100390.44;5052337;28;20143;-80
2022/01/22 06:06:33;;;;;;;17.33;8.05;;;;;;;-5.78;61.83;100397.41;5018827;28;20063;-85
2022/01/22 06:09:08;;;;;;;24.02;7.93;;;;;;;-5.57;61.68;100395.69;5036183;28;20048;-80
2022/01/22 06:11:53;;;;;;;18.85;8.65;;;;;;;-5.56;60.94;100393.13;5052097;28;20056;-83
2022/01/22 06:14:26;;;;;;;21.08;8.35;;;;;;;-5.49;60.32;100388.78;4988232;28;20578;-82
2022/01/22 06:16:53;;;;;;;21.00;9.10;;;;;;;-5.50;60.64;100394.84;5015204;28;20507;-82
2022/01/22 06:19:35;;;;;;;17.38;8.15;;;;;;;-5.46;60.73;100389.66;5002634;28;20103;-80
2022/01/22 06:22:10;;;;;;;23.80;8.40;;;;;;;-5.19;60.41;100398.34;5015045;28;20140;-81
2022/01/22 06:24:37;;;;;;;20.90;8.23;;;;;;;-4.97;59.93;100399.25;5033329;28;20136;-81
2022/01/22 06:27:09;;;;;;;16.77;7.82;;;;;;;-4.92;59.36;100397.53;5039578;28;20040;-78
2022/01/22 06:29:35;;;;;;;15.50;6.80;;;;;;;-4.87;59.27;100403.59;5021737;28;20123;-78
2022/01/22 06:32:03;;;;;;;17.60;7.63;;;;;;;-4.90;58.76;100387.94;5031266;28;20049;-75
2022/01/22 06:34:34;;;;;;;19.23;7.50;;;;;;;-4.76;59.46;100408.81;4999204;28;20060;-76
2022/01/22 06:37:02;;;;;;;21.33;8.32;;;;;;;-4.54;59.39;100399.22;4998582;28;20149;-74
2022/01/22 06:39:41;;;;;;;14.30;7.13;;;;;;;-4.45;58.41;100404.41;4999107;28;20088;-77
2022/01/22 06:42:41;;;;;;;23.20;8.65;;;;;;;-4.40;57.98;100405.25;5026020;28;20056;-77
2022/01/22 06:45:30;;;;;;;17.45;8.52;;;;;;;-4.31;57.78;100407.00;4980274;28;20268;-75
2022/01/22 06:48:00;;;;;;;25.23;9.25;;;;;;;-4.40;57.63;100407.88;4962049;28;20046;-75
2022/01/22 06:50:28;;;;;;;17.58;8.52;;;;;;;-4.46;57.73;100402.69;4979041;28;20053;-77
2022/01/22 06:53:05;;;;;;;24.17;10.48;;;;;;;-4.51;57.03;100404.44;5014045;28;20061;-75
2022/01/22 06:55:45;;;;;;;20.02;10.75;;;;;;;-4.40;57.59;100413.09;5031349;28;20045;-75
2022/01/22 06:58:14;;;;;;;30.88;10.70;;;;;;;-4.44;57.72;100408.75;4983467;28;20520;-76
2022/01/22 07:00:46;;;;;;;22.67;10.10;;;;;;;-4.29;57.58;100418.28;5029118;28;20610;-75
2022/01/22 07:03:32;;;;;;;17.05;9.50;;;;;;;-4.16;58.06;100418.25;5032416;28;20144;-76
2022/01/22 07:06:09;;;;;;;23.83;9.20;;;;;;;-4.09;57.33;100419.09;5002812;28;20500;-76
2022/01/22 07:08:37;;;;;;;22.60;10.50;;;;;;;-3.94;57.25;100423.41;5016603;28;20099;-75
2022/01/22 07:11:05;;;;;;;17.40;8.48;;;;;;;-3.94;56.89;100424.28;5016340;28;20049;-75
2022/01/22 07:13:34;;;;;;;17.50;8.48;;;;;;;-4.04;56.53;100424.31;5033587;28;20552;-76
2022/01/22 07:16:01;;;;;;;22.25;8.13;;;;;;;-4.08;56.91;100414.75;5015023;28;20048;-76
2022/01/22 07:18:29;;;;;;;18.08;8.20;;;;;;;-3.84;57.64;100416.38;5073674;28;20051;-76
2022/01/22 07:20:55;;;;;;;20.13;8.32;;;;;;;-3.56;56.76;100430.22;5073354;28;20151;-75
2022/01/22 07:26:06;;;;;;;21.45;9.32;;;;;;;-3.46;55.79;100424.03;5075719;28;20063;-75
2022/01/22 07:28:49;;;;;;;30.88;9.75;;;;;;;-3.37;55.78;100417.91;5082603;28;20071;-76
2022/01/22 07:31:16;;;;;;;34.67;10.55;;;;;;;-3.28;54.84;100426.53;5111440;27;20064;-75
2022/01/22 07:33:43;;;;;;;25.10;8.32;;;;;;;-3.25;54.73;100421.28;5060493;28;20040;-75
2022/01/22 07:36:10;;;;;;;22.65;8.38;;;;;;;-3.27;54.24;100424.78;5060842;28;20448;-75
2022/01/22 07:38:38;;;;;;;25.08;8.30;;;;;;;-3.23;54.19;100431.75;5077116;28;20039;-75
2022/01/22 07:41:07;;;;;;;;;;;;;;;-3.35;54.12;100440.53;5045862;28;20039;-77
2022/01/22 07:43:35;;;;;;;20.47;8.97;;;;;;;-3.41;54.81;100427.50;5110660;28;20298;-78
2022/01/22 07:46:21;;;;;;;25.48;9.02;;;;;;;-3.24;54.14;100432.63;5079329;28;20192;-76
2022/01/22 07:48:55;;;;;;;25.83;9.25;;;;;;;-3.29;54.39;100427.44;5077669;28;20056;-76
2022/01/22 07:51:32;;;;;;;21.55;9.23;;;;;;;-3.35;54.74;100426.59;5063731;28;20052;-75
2022/01/22 07:54:00;;;;;;;29.20;9.20;;;;;;;-3.38;54.63;100429.25;5077472;28;20085;-79
2022/01/22 07:56:29;;;;;;;29.05;9.23;;;;;;;-3.29;54.46;100430.03;5078803;28;20051;-77
2022/01/22 07:58:58;;;;;;;21.35;9.80;;;;;;;-3.39;54.47;100423.13;5094091;28;20078;-77
2022/01/22 08:01:25;;;;;;;;;;;;;;;-3.36;55.24;100428.34;5077867;28;20044;-75
2022/01/22 08:04:16;;;;;;;28.17;10.23;;;;;;;-3.17;55.35;100418.63;5100977;28;19922;-77
2022/01/22 08:07:03;;;;;;;28.83;12.50;;;;;;;-3.17;54.66;100431.69;5093777;28;20101;-77
2022/01/22 08:09:42;;;;;;;36.45;14.43;;;;;;;-2.86;54.85;100432.34;5078386;28;20047;-79
2022/01/22 08:12:29;;;;;;;35.65;15.15;;;;;;;-2.73;53.89;100420.91;5065552;28;20063;-78
2022/01/22 08:15:05;;;;;;;40.63;15.55;;;;;;;-2.58;54.20;100424.25;5077976;28;20050;-77
2022/01/22 08:17:31;;;;;;;32.53;14.20;;;;;;;-2.40;53.71;100428.47;5043852;28;20039;-77
2022/01/22 08:19:58;;;;;;;31.00;14.93;;;;;;;-2.34;53.54;100429.25;5043951;28;20070;-78
2022/01/22 08:22:43;;;;;;;38.70;16.40;;;;;;;-2.48;53.26;100420.69;5087186;28;20050;-76
2022/01/22 08:25:30;;;;;;;45.17;16.00;;;;;;;-2.49;53.63;100418.94;5084691;28;20051;-76
2022/01/22 08:30:36;;;;;;;45.42;15.23;;;;;;;-2.39;53.06;100424.97;5061926;28;20068;-76
2022/01/22 08:33:33;;;;;;;41.33;14.13;;;;;;;-2.50;53.07;100425.06;5062268;28;20064;-79
2022/01/22 08:35:56;;;;;;;34.15;13.27;;;;;;;-2.41;52.82;100421.47;5052705;28;20521;-77
2022/01/22 08:38:25;;;;;;;27.77;12.15;;;;;;;-2.34;53.52;100420.53;5062654;28;20054;-78
2022/01/22 08:40:52;;;;;;;32.00;13.57;;;;;;;-2.14;53.33;100426.44;5062376;28;20036;-77
2022/01/22 08:43:18;;;;;;;26.75;11.38;;;;;;;-2.01;52.47;100432.41;5027681;28;20051;-75
2022/01/22 08:45:45;;;;;;;33.70;11.98;;;;;;;-2.01;52.39;100427.16;5052699;28;20044;-78
2022/01/22 08:48:11;;;;;;;30.73;12.45;;;;;;;-1.85;52.26;100417.34;5028304;28;20044;-78
2022/01/22 08:50:38;;;;;;;20.67;10.48;;;;;;;-1.50;52.27;100419.53;5041961;28;20517;-82
2022/01/22 08:53:04;;;;;;;23.40;10.45;;;;;;;-1.22;51.27;100412.13;5022454;28;20458;-80
2022/01/22 08:55:30;;;;;;;22.73;10.30;;;;;;;-0.91;50.82;100415.16;5038970;28;20492;-80
2022/01/22 08:57:56;;;;;;;24.55;12.43;;;;;;;-0.70;50.68;100423.56;5055826;28;20047;-79
2022/01/22 09:00:45;;;;;;;24.23;11.80;;;;;;;-0.47;49.62;100426.66;5052340;28;20056;-79
2022/01/22 09:03:28;;;;;;;19.60;10.27;;;;;;;-0.34;49.45;100420.31;5044137;28;20047;-79
2022/01/22 09:06:17;;;;;;;22.13;10.25;;;;;;;0.05;49.07;100436.22;5040741;28;20082;-80
2022/01/22 09:09:13;;;;;;;26.58;10.93;;;;;;;-0.06;47.59;100435.56;5045611;28;20129;-79
2022/01/22 09:11:54;;;;;;;25.10;10.90;;;;;;;-0.68;48.48;100440.16;5070376;28;20055;-78
2022/01/22 09:14:41;;;;;;;21.85;9.75;;;;;;;-1.01;49.04;100440.69;5064755;28;20040;-78
2022/01/22 09:17:07;;;;;;;23.70;10.00;;;;;;;-1.23;49.34;100441.91;5076073;28;20063;-79
2022/01/22 09:19:34;;;;;;;25.90;10.80;;;;;;;-1.08;49.32;100433.78;5042947;28;20491;-80
2022/01/22 09:22:06;;;;;;;24.95;10.35;;;;;;;-1.03;49.37;100431.09;5060959;28;20499;-81
2022/01/22 09:24:34;;;;;;;24.05;9.90;;;;;;;-0.98;48.96;100429.25;5075749;28;20134;-79
2022/01/22 09:27:04;;;;;;;29.88;12.18;;;;;;;-1.18;49.52;100418.22;5058813;28;20038;-80
2022/01/22 09:29:30;;;;;;;26.48;11.32;;;;;;;-1.11;49.42;100425.09;5069791;28;20052;-78
2022/01/22 09:31:57;;;;;;;25.30;11.60;;;;;;;-1.34;49.23;100434.16;5061481;28;20129;-78
2022/01/22 09:34:52;;;;;;;21.75;10.40;;;;;;;-1.35;49.66;100437.69;5030553;28;20048;-80
2022/01/22 09:37:40;;;;;;;25.85;11.25;;;;;;;-1.50;50.32;100425.66;5069646;28;20114;-80
2022/01/22 09:40:28;;;;;;;22.83;11.77;;;;;;;-1.43;50.32;100431.66;5072555;28;20049;-80
2022/01/22 09:43:17;;;;;;;31.70;12.52;;;;;;;-1.41;50.26;100435.13;5054180;28;20052;-80
2022/01/22 09:46:01;;;;;;;21.73;11.48;;;;;;;-1.23;50.00;100444.50;5030337;28;20509;-81
2022/01/22 09:48:45;;;;;;;36.95;15.48;;;;;;;-1.39;49.53;100446.50;5052340;28;20048;-80
2022/01/22 09:51:33;;;;;;;31.65;13.02;;;;;;;-1.29;50.04;100448.06;5058888;28;20052;-80
2022/01/22 09:54:19;;;;;;;45.75;18.20;;;;;;;-1.50;50.11;100461.50;5038081;28;20054;-81
2022/01/22 09:57:06;;;;;;;30.02;13.25;;;;;;;-1.60;50.30;100455.50;5071901;28;20464;-79
2022/01/22 09:59:40;;;;;;;32.72;13.55;;;;;;;-1.42;50.00;100454.41;5076893;28;20102;-81
2022/01/22 10:02:15;;;;;;;31.02;12.10;;;;;;;-1.44;49.88;100450.06;5074187;28;20518;-81
2022/01/22 10:04:45;;;;;;;34.45;13.07;;;;;;;-1.61;49.92;100451.16;5027595;28;20081;-81
2022/01/22 10:07:36;;;;;;;29.80;11.40;;;;;;;-1.64;50.27;100456.41;5078290;28;20032;-82
2022/01/22 10:10:20;;;;;;;25.45;9.43;;;;;;;-1.85;51.00;100465.41;5049828;28;20103;-79
2022/01/22 10:13:05;;;;;;;21.30;9.15;;;;;;;-1.53;50.78;100461.53;5064320;28;20526;-81
2022/01/22 10:15:35;;;;;;;23.30;10.05;;;;;;;-1.18;49.91;100468.06;5058243;28;20048;-81
2022/01/22 10:18:04;;;;;;;20.05;9.40;;;;;;;-1.23;49.43;100466.38;5060777;28;20051;-82
2022/01/22 10:20:33;;;;;;;19.70;9.00;;;;;;;-1.42;49.78;100471.88;5043499;28;20123;-81
2022/01/22 10:23:04;;;;;;;18.90;8.50;;;;;;;-1.66;49.85;100459.94;5091831;28;20063;-80
2022/01/22 10:25:38;;;;;;;22.30;9.23;;;;;;;-1.73;50.68;100467.91;5058057;28;20040;-80
2022/01/22 10:28:11;;;;;;;18.05;8.07;;;;;;;-1.89;50.31;100468.94;5091741;28;20039;-79
2022/01/22 10:30:40;;;;;;;30.88;10.50;;;;;;;-1.91;50.42;100475.97;5072912;28;20063;-80
2022/01/22 10:33:30;;;;;;;25.65;11.00;;;;;;;-1.85;50.47;100475.88;5092912;28;20036;-79
2022/01/22 10:36:20;;;;;;;21.67;9.60;;;;;;;-1.83;50.71;100483.75;5071960;28;20090;-81
2022/01/22 10:39:23;;;;;;;21.55;7.82;;;;;;;-2.03;50.39;100481.31;5068313;28;20048;-82
2022/01/22 10:41:50;;;;;;;16.65;7.03;;;;;;;-2.19;50.58;100491.09;5042418;28;20066;-81
2022/01/22 10:44:22;;;;;;;21.75;8.57;;;;;;;-2.46;50.91;100495.69;5076820;28;20046;-80
2022/01/22 10:47:03;;;;;;;17.80;7.45;;;;;;;-2.60;51.42;100499.31;5058470;28;20515;-81
2022/01/22 10:49:29;;;;;;;14.70;7.43;;;;;;;-2.82;52.10;100496.88;5077319;28;20645;-81
2022/01/22 10:52:00;;;;;;;17.50;8.48;;;;;;;-2.86;52.11;100502.97;5056354;28;20044;-80
2022/01/22 10:54:28;;;;;;;17.58;8.35;;;;;;;-2.81;52.17;100497.75;5061137;28;20538;-81
2022/01/22 10:56:54;;;;;;;18.38;8.10;;;;;;;-2.50;51.93;100508.84;5039220;28;20044;-79
2022/01/22 10:59:21;;;;;;;33.45;7.95;;;;;;;-2.14;51.59;100510.28;5038113;28;20052;-80
2022/01/22 11:01:55;;;;;;;18.55;7.97;;;;;;;-1.74;50.30;100508.06;5055973;28;20159;-79
2022/01/22 11:04:26;;;;;;;20.48;7.13;;;;;;;-1.52;49.40;100495.59;5059032;28;20131;-77
2022/01/22 11:06:57;;;;;;;15.88;7.07;;;;;;;-1.27;49.22;100503.16;5026259;28;20048;-76
2022/01/22 11:09:24;;;;;;;20.63;7.60;;;;;;;-1.31;49.36;100506.72;5026281;28;20044;-79
2022/01/22 11:11:51;;;;;;;18.77;8.48;;;;;;;-1.41;48.90;100505.94;5109039;28;20048;-77
2022/01/22 11:14:17;;;;;;;17.38;6.93;;;;;;;-1.39;48.77;100508.53;5074874;28;20044;-79
2022/01/22 11:16:44;;;;;;;16.98;7.07;;;;;;;-1.86;48.79;100494.25;5041914;28;20495;-77
2022/01/22 11:19:13;;;;;;;34.30;13.07;;;;;;;-2.02;49.53;100509.28;5074883;28;20032;-77
2022/01/22 11:21:44;;;;;;;37.63;14.65;;;;;;;-2.17;49.92;100514.66;5051728;28;20396;-78
2022/01/22 11:24:21;;;;;;;46.38;17.98;;;;;;;-1.90;50.51;100514.38;5062725;28;20044;-76
2022/01/22 11:27:07;;;;;;;57.65;18.85;;;;;;;-1.51;50.02;100523.53;5062000;28;20168;-78
2022/01/22 11:29:47;;;;;;;50.08;17.10;;;;;;;-1.42;49.02;100516.47;5061771;28;20044;-75
2022/01/22 11:32:13;;;;;;;26.10;12.60;;;;;;;-1.66;48.87;100518.47;5046269;28;20056;-76
2022/01/22 11:34:40;;;;;;;39.67;17.42;;;;;;;-2.10;49.31;100521.59;5061672;28;20047;-78
2022/01/22 11:37:13;;;;;;;39.10;17.42;;;;;;;-2.11;50.43;100519.81;5078532;28;20048;-80
2022/01/22 11:39:39;;;;;;;26.35;12.57;;;;;;;-1.85;50.33;100517.81;5079349;28;20040;-80
2022/01/22 11:42:06;;;;;;;27.30;12.95;;;;;;;-1.74;50.28;100525.56;5044220;28;20495;-75
2022/01/22 11:44:46;;;;;;;24.38;11.80;;;;;;;-1.80;49.69;100525.66;5093822;28;20119;-78
2022/01/22 11:47:17;;;;;;;20.73;11.18;;;;;;;-1.92;50.01;100520.50;5077250;28;20489;-79
2022/01/22 11:50:07;;;;;;;22.38;8.35;;;;;;;-1.99;50.80;100530.22;5093746;28;20515;-81
2022/01/22 11:52:37;;;;;;;25.52;9.45;;;;;;;-2.43;50.88;100531.47;5077586;28;20032;-80
2022/01/22 11:55:16;;;;;;;18.45;8.23;;;;;;;-3.09;51.93;100534.50;5094195;28;20118;-78
2022/01/22 11:57:43;;;;;;;16.23;8.13;;;;;;;-3.52;52.65;100537.34;5078105;28;20043;-80
2022/01/22 12:00:20;;;;;;;19.83;8.40;;;;;;;-3.73;53.37;100521.72;5060717;28;20414;-80
2022/01/22 12:03:08;;;;;;;16.52;8.35;;;;;;;-3.75;53.16;100545.25;5060372;28;20043;-80
2022/01/22 12:06:04;;;;;;;25.15;8.70;;;;;;;-3.94;54.52;100541.81;5093041;28;20070;-80
2022/01/22 12:08:30;;;;;;;17.88;7.20;;;;;;;-4.21;53.92;100550.56;5047500;28;20184;-79
2022/01/22 12:16:44;;;;;;;38.15;15.60;;;;;;;-5.20;55.70;100561.72;5066275;28;20048;-77
2022/01/22 12:20:28;;;;;;;48.35;17.48;;;;;;;-5.25;55.91;100581.69;5088199;28;20063;-78
2022/01/22 12:22:32;;;;;;;45.58;16.88;;;;;;;-5.28;56.15;100568.63;5025931;28;20051;-79
2022/01/22 12:25:07;;;;;;;66.28;22.65;;;;;;;-5.35;56.33;100568.59;5089421;28;20131;-80
2022/01/22 12:27:50;;;;;;;66.90;21.92;;;;;;;-5.40;56.60;100574.66;5093818;28;20123;-79
2022/01/22 12:30:32;;;;;;;66.85;24.23;;;;;;;-5.48;56.55;100568.56;5060436;28;20388;-78
2022/01/22 12:32:59;;;;;;;70.63;23.52;;;;;;;-5.55;56.55;100576.34;5077198;28;20044;-79
2022/01/22 12:35:39;;;;;;;46.67;18.38;;;;;;;-5.82;57.14;100567.50;5060014;28;20069;-79
2022/01/22 12:38:17;;;;;;;53.78;20.48;;;;;;;-5.90;57.51;100575.28;5060387;28;20089;-76
2022/01/22 12:40:44;;;;;;;79.38;25.55;;;;;;;-5.93;57.80;100584.84;5075671;28;20032;-78
2022/01/22 12:43:14;;;;;;;48.08;18.63;;;;;;;-6.04;58.23;100578.69;5057579;28;20131;-78
2022/01/22 12:45:43;;;;;;;55.65;20.65;;;;;;;-6.00;58.20;100583.03;5076750;28;20170;-78
2022/01/22 12:48:12;;;;;;;49.45;19.52;;;;;;;-6.04;58.22;100576.06;5070573;28;20414;-78
2022/01/22 12:50:38;;;;;;;46.63;18.75;;;;;;;-6.06;58.59;100583.00;5076485;28;20059;-79
2022/01/22 12:53:15;;;;;;;37.45;14.82;;;;;;;-6.12;58.48;100584.69;5059226;28;20128;-78
2022/01/22 12:56:03;;;;;;;33.83;15.27;;;;;;;-6.14;58.65;100591.59;5076243;28;20036;-78
2022/01/22 12:58:33;;;;;;;37.80;14.15;;;;;;;-6.16;58.94;100593.34;5073155;28;20410;-77
2022/01/22 13:01:17;;;;;;;30.30;12.13;;;;;;;-6.22;58.95;100592.41;5042683;28;20498;-77
2022/01/22 13:03:45;;;;;;;33.50;13.77;;;;;;;-6.21;58.87;100602.81;5058668;28;20475;-79
2022/01/22 13:06:12;;;;;;;28.08;11.60;;;;;;;-6.25;58.88;100598.47;5056939;28;20032;-78
2022/01/22 13:08:57;;;;;;;27.65;11.48;;;;;;;-6.25;59.01;100602.78;5065186;28;20491;-77
2022/01/22 13:11:33;;;;;;;21.60;10.23;;;;;;;-6.27;59.13;100615.81;5057222;28;20039;-77
2022/01/22 13:13:59;;;;;;;21.90;9.25;;;;;;;-6.34;59.10;100607.94;5057769;28;20050;-78
2022/01/22 13:16:25;;;;;;;25.75;10.35;;;;;;;-6.33;59.31;100605.34;5042549;28;20048;-75
2022/01/22 13:19:00;;;;;;;22.90;9.80;;;;;;;-6.36;59.06;100620.91;5036793;28;20043;-77